Time;durP1;ratioP1;P1;durP2;ratioP2;P2;SDS_P1;SDS_P2;PMS_P1;PMS_P2;Temp;Humidity;BMP_temperature;BMP_pressure;BME280_temperature;BME280_humidity;BME280_pressure;Samples;Min_cycle;Max_cycle;Signal;HPM_P1;HPM_P2
2024/01/02 00:01:15;;;;;;;5.07;1.20;;;;;;;;;;5058441;28;20452;-80
2024/01/02 00:03:40;;;;;;;10.10;1.75;;;;;;;;;;5059070;28;20672;-79
2024/01/02 00:06:06;;;;;;;6.70;1.50;;;;;;;;;;5058701;28;20021;-80
2024/01/02 00:08:31;;;;;;;7.57;1.30;;;;;;;;;;5039886;28;20467;-80
2024/01/02 00:10:56;;;;;;;8.20;1.70;;;;;;;;;;5058147;28;20104;-80
2024/01/02 00:13:21;;;;;;;6.00;1.58;;;;;;;;;;5057965;28;20108;-80
2024/01/02 00:15:47;;;;;;;10.88;2.10;;;;;;;;;;5058417;28;20032;-80
2024/01/02 00:18:12;;;;;;;8.68;1.60;;;;;;;;;;5057489;28;20029;-79
2024/01/02 00:20:37;;;;;;;12.20;1.73;;;;;;;;;;5040659;28;20024;-79
2024/01/02 00:23:02;;;;;;;11.20;3.93;;;;;;;;;;5057934;28;20515;-80
2024/01/02 00:25:28;;;;;;;9.80;3.15;;;;;;;;;;5057409;28;20772;-79
2024/01/02 00:27:53;;;;;;;21.45;5.13;;;;;;;;;;5057645;28;20049;-81
2024/01/02 00:30:18;;;;;;;15.30;3.50;;;;;;;;;;5057909;28;20408;-79
2024/01/02 00:32:43;;;;;;;10.53;2.13;;;;;;;;;;5040635;28;20647;-80
2024/01/02 00:35:10;;;;;;;6.55;1.77;;;;;;;;;;5056482;28;20274;-80
2024/01/02 00:37:35;;;;;;;7.13;1.70;;;;;;;;;;5056314;28;20484;-79
2024/01/02 00:40:00;;;;;;;10.33;1.87;;;;;;;;;;5057966;28;20048;-79
2024/01/02 00:42:25;;;;;;;7.50;1.63;;;;;;;;;;5058296;28;20266;-79
2024/01/02 00:44:51;;;;;;;7.55;1.70;;;;;;;;;;5058102;28;20281;-79
2024/01/02 00:47:16;;;;;;;6.90;1.40;;;;;;;;;;5057652;28;20049;-80
2024/01/02 00:49:41;;;;;;;6.18;1.40;;;;;;;;;;5057701;28;20044;-79
2024/01/02 00:52:07;;;;;;;5.85;1.25;;;;;;;;;;5058340;28;20089;-79
2024/01/02 00:54:32;;;;;;;8.85;1.67;;;;;;;;;;5039237;28;20029;-80
2024/01/02 00:56:57;;;;;;;2.75;1.25;;;;;;;;;;5057373;28;20068;-80
2024/01/02 00:59:22;;;;;;;6.10;1.80;;;;;;;;;;5057547;28;20020;-80
2024/01/02 01:01:48;;;;;;;7.78;1.70;;;;;;;;;;5056617;28;20278;-79
2024/01/02 01:04:13;;;;;;;5.50;1.30;;;;;;;;;;5055769;28;20032;-80
2024/01/02 01:06:38;;;;;;;7.53;1.42;;;;;;;;;;5055116;28;20310;-79
2024/01/02 01:09:03;;;;;;;5.10;1.60;;;;;;;;;;5054147;28;20534;-80
2024/01/02 01:11:29;;;;;;;5.85;1.40;;;;;;;;;;5037726;28;20789;-79
2024/01/02 01:13:54;;;;;;;7.07;1.48;;;;;;;;;;5038162;28;20024;-79
2024/01/02 01:16:19;;;;;;;6.13;1.10;;;;;;;;;;5054311;28;20480;-80
2024/01/02 01:18:45;;;;;;;6.57;1.40;;;;;;;;;;5055129;28;20089;-79
2024/01/02 01:21:10;;;;;;;3.28;1.10;;;;;;;;;;5054970;28;20685;-79
2024/01/02 01:23:36;;;;;;;5.93;1.40;;;;;;;;;;5054236;28;20029;-79
2024/01/02 01:26:01;;;;;;;10.07;1.30;;;;;;;;;;5054162;28;20514;-79
2024/01/02 01:28:26;;;;;;;4.63;1.10;;;;;;;;;;5054225;28;20535;-80
2024/01/02 01:30:51;;;;;;;5.38;1.00;;;;;;;;;;5054434;28;20626;-79
2024/01/02 01:33:16;;;;;;;4.13;1.13;;;;;;;;;;5054767;28;20025;-79
2024/01/02 01:35:42;;;;;;;4.20;0.97;;;;;;;;;;5037134;28;20124;-79
2024/01/02 01:38:07;;;;;;;4.40;1.15;;;;;;;;;;5054714;28;20297;-80
2024/01/02 01:40:32;;;;;;;6.78;1.00;;;;;;;;;;5055302;28;20024;-79
2024/01/02 01:42:58;;;;;;;3.67;0.68;;;;;;;;;;5054568;28;20495;-80
2024/01/02 01:45:23;;;;;;;3.15;0.70;;;;;;;;;;5037274;28;20025;-78
2024/01/02 01:47:50;;;;;;;6.35;0.60;;;;;;;;;;5054416;28;20040;-80
2024/01/02 01:50:16;;;;;;;2.25;0.60;;;;;;;;;;5055180;28;20072;-80
2024/01/02 01:52:43;;;;;;;5.53;0.80;;;;;;;;;;5055287;28;20083;-80
2024/01/02 01:55:10;;;;;;;1.45;0.40;;;;;;;;;;5055468;28;20538;-80
2024/01/02 01:57:35;;;;;;;1.38;0.60;;;;;;;;;;5038372;28;20114;-80
2024/01/02 02:00:01;;;;;;;0.22;0.20;;;;;;;;;;5060095;28;20068;-78
2024/01/02 02:02:27;;;;;;;3.10;0.57;;;;;;;;;;5066492;28;20028;-79
2024/01/02 02:04:54;;;;;;;1.25;0.20;;;;;;;;;;5066835;28;20078;-78
2024/01/02 02:07:19;;;;;;;1.05;0.28;;;;;;;;;;5057406;28;20062;-80
2024/01/02 02:09:44;;;;;;;4.15;0.45;;;;;;;;;;5054977;28;20075;-79
2024/01/02 02:12:10;;;;;;;1.70;0.60;;;;;;;;;;5056789;28;20025;-79
2024/01/02 02:14:35;;;;;;;4.15;0.40;;;;;;;;;;5056695;28;20262;-79
2024/01/02 02:17:01;;;;;;;1.73;0.30;;;;;;;;;;5056498;28;20025;-79
2024/01/02 02:19:26;;;;;;;2.97;0.40;;;;;;;;;;5056637;28;20021;-79
2024/01/02 02:21:54;;;;;;;4.43;0.40;;;;;;;;;;5056827;28;20035;-79
2024/01/02 02:24:19;;;;;;;1.00;0.47;;;;;;;;;;5038978;28;20311;-79
2024/01/02 02:26:44;;;;;;;1.90;0.40;;;;;;;;;;5056553;28;20103;-78
2024/01/02 02:29:10;;;;;;;3.37;0.50;;;;;;;;;;5056112;28;20375;-79
2024/01/02 02:31:35;;;;;;;2.90;0.52;;;;;;;;;;5038579;28;20305;-79
2024/01/02 02:34:00;;;;;;;4.75;0.40;;;;;;;;;;5056950;28;20244;-79
2024/01/02 02:36:26;;;;;;;1.90;0.40;;;;;;;;;;5038389;28;20025;-79
2024/01/02 02:38:51;;;;;;;2.80;0.60;;;;;;;;;;5056235;28;20314;-79
2024/01/02 02:41:16;;;;;;;2.93;0.50;;;;;;;;;;5057055;28;20074;-79
2024/01/02 02:43:42;;;;;;;1.45;0.30;;;;;;;;;;5056654;28;20253;-79
2024/01/02 02:46:07;;;;;;;2.00;0.32;;;;;;;;;;5056676;28;20075;-79
2024/01/02 02:48:32;;;;;;;1.92;0.50;;;;;;;;;;5038430;28;20542;-79
2024/01/02 02:50:57;;;;;;;1.50;0.47;;;;;;;;;;5056829;28;20029;-79
2024/01/02 02:53:22;;;;;;;0.70;0.40;;;;;;;;;;5055181;28;20280;-79
2024/01/02 02:55:48;;;;;;;3.00;0.30;;;;;;;;;;5056257;28;20257;-79
2024/01/02 02:58:13;;;;;;;2.47;0.45;;;;;;;;;;5038606;28;20021;-79
2024/01/02 03:00:38;;;;;;;4.57;0.40;;;;;;;;;;5038190;28;20032;-80
2024/01/02 03:03:04;;;;;;;0.95;0.30;;;;;;;;;;5056723;28;20737;-79
2024/01/02 03:05:29;;;;;;;1.45;0.32;;;;;;;;;;5038419;28;20395;-80
2024/01/02 03:07:56;;;;;;;1.45;0.40;;;;;;;;;;5056280;28;20033;-80
2024/01/02 03:10:21;;;;;;;1.65;0.45;;;;;;;;;;5056513;28;20554;-80
2024/01/02 03:12:46;;;;;;;1.88;0.40;;;;;;;;;;5055931;28;20053;-80
2024/01/02 03:15:12;;;;;;;1.47;0.47;;;;;;;;;;5056009;28;20063;-80
2024/01/02 03:17:37;;;;;;;1.52;0.38;;;;;;;;;;5038527;28;20262;-80
2024/01/02 03:20:03;;;;;;;4.50;0.55;;;;;;;;;;5054502;28;20045;-79
2024/01/02 03:22:29;;;;;;;3.25;0.40;;;;;;;;;;5056365;28;20025;-79
2024/01/02 03:24:54;;;;;;;2.42;0.35;;;;;;;;;;5056365;28;20035;-79
2024/01/02 03:27:19;;;;;;;0.20;0.20;;;;;;;;;;5056237;28;20025;-81
2024/01/02 03:29:44;;;;;;;0.90;0.40;;;;;;;;;;5055896;28;20369;-80
2024/01/02 03:32:10;;;;;;;1.25;0.55;;;;;;;;;;5057677;28;20117;-80
2024/01/02 03:34:39;;;;;;;0.67;0.30;;;;;;;;;;5059752;28;20025;-80
2024/01/02 03:37:04;;;;;;;3.53;0.50;;;;;;;;;;5059720;28;20269;-80
2024/01/02 03:39:29;;;;;;;3.28;0.52;;;;;;;;;;5060303;28;20029;-80
2024/01/02 03:41:55;;;;;;;2.38;0.50;;;;;;;;;;5042632;28;20032;-80
2024/01/02 03:44:20;;;;;;;1.60;0.38;;;;;;;;;;5059874;28;20056;-80
2024/01/02 03:46:45;;;;;;;0.82;0.47;;;;;;;;;;5060166;28;20032;-81
2024/01/02 03:49:10;;;;;;;2.70;0.53;;;;;;;;;;5059677;28;20029;-80
2024/01/02 03:51:36;;;;;;;3.30;0.47;;;;;;;;;;5059308;28;20264;-81
2024/01/02 03:54:01;;;;;;;1.95;0.80;;;;;;;;;;5059315;28;20029;-80
2024/01/02 03:56:26;;;;;;;1.67;0.52;;;;;;;;;;5059728;28;20365;-81
2024/01/02 03:58:52;;;;;;;2.70;0.60;;;;;;;;;;5059280;28;20088;-80
2024/01/02 04:01:17;;;;;;;0.60;0.60;;;;;;;;;;5059102;28;20040;-81
2024/01/02 04:03:42;;;;;;;3.40;0.70;;;;;;;;;;5042031;28;20472;-81
2024/01/02 04:06:07;;;;;;;3.27;0.93;;;;;;;;;;5059889;28;20621;-80
2024/01/02 04:08:32;;;;;;;4.30;0.67;;;;;;;;;;5057748;28;20788;-80
2024/01/02 04:10:58;;;;;;;3.40;0.82;;;;;;;;;;5059253;28;20808;-81
2024/01/02 04:13:23;;;;;;;5.07;0.70;;;;;;;;;;5059306;28;20373;-81
2024/01/02 04:15:48;;;;;;;2.88;0.65;;;;;;;;;;5040802;28;20613;-80
2024/01/02 04:18:14;;;;;;;3.00;0.83;;;;;;;;;;5059136;28;20021;-80
2024/01/02 04:20:39;;;;;;;0.80;0.52;;;;;;;;;;5057678;28;20286;-80
2024/01/02 04:23:05;;;;;;;3.10;0.50;;;;;;;;;;5058272;28;20029;-80
2024/01/02 04:25:30;;;;;;;4.55;0.70;;;;;;;;;;5058101;28;20261;-81
2024/01/02 04:27:56;;;;;;;3.23;0.50;;;;;;;;;;5057975;28;20032;-80
2024/01/02 04:30:22;;;;;;;1.60;0.70;;;;;;;;;;5058064;28;20277;-80
2024/01/02 04:32:48;;;;;;;1.20;0.60;;;;;;;;;;5058276;28;20439;-81
2024/01/02 04:35:13;;;;;;;3.45;0.70;;;;;;;;;;5058206;28;20027;-81
2024/01/02 04:37:38;;;;;;;3.00;0.55;;;;;;;;;;5040616;28;20021;-81
2024/01/02 04:40:10;;;;;;;3.20;0.65;;;;;;;;;;5058325;28;20502;-80
2024/01/02 04:42:35;;;;;;;2.67;0.68;;;;;;;;;;5039962;28;20028;-81
2024/01/02 04:45:02;;;;;;;0.85;0.50;;;;;;;;;;5055852;28;20017;-80
2024/01/02 04:47:27;;;;;;;0.93;0.45;;;;;;;;;;5040046;28;20042;-80
2024/01/02 04:49:53;;;;;;;3.75;0.73;;;;;;;;;;5057940;28;20017;-80
2024/01/02 04:52:18;;;;;;;3.97;0.90;;;;;;;;;;5058180;28;20028;-80
2024/01/02 04:54:45;;;;;;;2.30;0.70;;;;;;;;;;5040501;28;20261;-80
2024/01/02 04:57:10;;;;;;;3.22;0.73;;;;;;;;;;5058328;28;20269;-81
2024/01/02 04:59:35;;;;;;;4.57;0.63;;;;;;;;;;5057840;28;20380;-80
2024/01/02 05:02:01;;;;;;;2.23;0.67;;;;;;;;;;5040620;28;20032;-81
2024/01/02 05:04:26;;;;;;;3.33;0.70;;;;;;;;;;5056288;28;20296;-79
2024/01/02 05:06:51;;;;;;;3.40;0.97;;;;;;;;;;5057380;28;20269;-81
2024/01/02 05:09:16;;;;;;;4.33;0.90;;;;;;;;;;5056633;28;20733;-80
2024/01/02 05:11:41;;;;;;;3.17;0.97;;;;;;;;;;5061971;28;20316;-79
2024/01/02 05:14:07;;;;;;;1.42;0.65;;;;;;;;;;5069743;28;20265;-78
2024/01/02 05:16:32;;;;;;;7.80;1.30;;;;;;;;;;5068771;28;20025;-80
2024/01/02 05:18:57;;;;;;;6.53;1.20;;;;;;;;;;5058807;28;20261;-79
2024/01/02 05:21:22;;;;;;;4.37;1.10;;;;;;;;;;5057956;28;20035;-79
2024/01/02 05:23:48;;;;;;;4.57;1.08;;;;;;;;;;5039708;28;20383;-79
2024/01/02 05:26:13;;;;;;;1.70;0.90;;;;;;;;;;5057450;28;20035;-79
2024/01/02 05:28:38;;;;;;;3.05;1.00;;;;;;;;;;5057315;28;20282;-80
2024/01/02 05:31:04;;;;;;;1.88;1.00;;;;;;;;;;5057378;28;20056;-80
2024/01/02 05:33:29;;;;;;;2.38;1.00;;;;;;;;;;5040642;28;20028;-80
2024/01/02 05:35:55;;;;;;;1.75;1.02;;;;;;;;;;5057426;28;20031;-80
2024/01/02 05:38:20;;;;;;;2.07;0.80;;;;;;;;;;5058159;28;20365;-80
2024/01/02 05:40:45;;;;;;;4.33;1.27;;;;;;;;;;5057846;28;20657;-79
2024/01/02 05:43:10;;;;;;;2.80;0.90;;;;;;;;;;5057812;28;20253;-80
2024/01/02 05:45:36;;;;;;;3.00;0.98;;;;;;;;;;5058202;28;20624;-79
2024/01/02 05:48:02;;;;;;;1.23;1.00;;;;;;;;;;5057706;28;20112;-80
2024/01/02 05:50:27;;;;;;;1.33;0.90;;;;;;;;;;5058126;28;20056;-80
2024/01/02 05:52:53;;;;;;;1.55;0.90;;;;;;;;;;5055865;28;20484;-80
2024/01/02 05:55:18;;;;;;;0.70;0.70;;;;;;;;;;5055807;28;20025;-80
2024/01/02 05:57:43;;;;;;;1.27;0.80;;;;;;;;;;5055750;28;20253;-80
2024/01/02 06:00:09;;;;;;;1.37;1.00;;;;;;;;;;5056419;28;20028;-80
2024/01/02 06:02:34;;;;;;;1.27;0.80;;;;;;;;;;5056150;28;20267;-79
2024/01/02 06:04:59;;;;;;;3.37;0.90;;;;;;;;;;5055806;28;20031;-80
2024/01/02 06:07:24;;;;;;;1.40;0.90;;;;;;;;;;5055761;28;20314;-80
2024/01/02 06:09:49;;;;;;;2.37;0.90;;;;;;;;;;5036895;28;20021;-78
2024/01/02 06:12:15;;;;;;;2.13;0.97;;;;;;;;;;5054321;28;20296;-80
2024/01/02 06:14:40;;;;;;;1.95;1.00;;;;;;;;;;5054612;28;20261;-80
2024/01/02 06:17:05;;;;;;;1.47;1.07;;;;;;;;;;5055066;28;20025;-80
2024/01/02 06:19:30;;;;;;;1.75;1.00;;;;;;;;;;5038321;28;20268;-79
2024/01/02 06:21:56;;;;;;;2.17;1.27;;;;;;;;;;5056868;28;20025;-80
2024/01/02 06:24:21;;;;;;;1.67;1.00;;;;;;;;;;5045197;28;20283;-79
2024/01/02 06:26:46;;;;;;;2.13;0.93;;;;;;;;;;5019098;28;20507;-80
2024/01/02 06:29:11;;;;;;;2.20;0.97;;;;;;;;;;5018569;28;20034;-80
2024/01/02 06:31:36;;;;;;;1.93;1.10;;;;;;;;;;5036109;28;20273;-80
2024/01/02 06:34:02;;;;;;;3.03;0.97;;;;;;;;;;5036554;28;20295;-79
2024/01/02 06:36:27;;;;;;;2.42;1.27;;;;;;;;;;5037240;28;20289;-80
2024/01/02 06:38:52;;;;;;;2.27;1.20;;;;;;;;;;5035984;28;20022;-79
2024/01/02 06:41:17;;;;;;;3.90;1.20;;;;;;;;;;5036427;28;20344;-79
2024/01/02 06:43:42;;;;;;;1.93;1.17;;;;;;;;;;5035951;28;20622;-80
2024/01/02 06:46:11;;;;;;;2.53;1.30;;;;;;;;;;5036435;28;20602;-79
2024/01/02 06:48:36;;;;;;;1.67;1.10;;;;;;;;;;5018667;28;20314;-80
2024/01/02 06:51:02;;;;;;;1.67;0.97;;;;;;;;;;5036319;28;20048;-80
2024/01/02 06:53:27;;;;;;;1.45;1.05;;;;;;;;;;5034826;28;20263;-81
2024/01/02 06:55:52;;;;;;;1.40;1.20;;;;;;;;;;5036307;28;20044;-79
2024/01/02 06:58:17;;;;;;;2.95;1.35;;;;;;;;;;5036290;28;20246;-79
2024/01/02 07:00:42;;;;;;;3.50;1.55;;;;;;;;;;5036215;28;20021;-80
2024/01/02 07:03:09;;;;;;;2.30;1.33;;;;;;;;;;5036595;28;20025;-79
2024/01/02 07:05:35;;;;;;;3.10;1.30;;;;;;;;;;5017987;28;20804;-80
2024/01/02 07:08:00;;;;;;;2.85;1.45;;;;;;;;;;5039012;28;20033;-79
2024/01/02 07:10:25;;;;;;;3.38;1.30;;;;;;;;;;5039733;28;20021;-79
2024/01/02 07:12:50;;;;;;;3.97;1.45;;;;;;;;;;5040285;28;20101;-79
2024/01/02 07:15:16;;;;;;;2.83;1.40;;;;;;;;;;5039616;28;20464;-79
2024/01/02 07:17:42;;;;;;;5.50;1.77;;;;;;;;;;5021751;28;20766;-80
2024/01/02 07:20:07;;;;;;;2.30;1.45;;;;;;;;;;5039831;28;20029;-80
2024/01/02 07:22:33;;;;;;;2.88;1.35;;;;;;;;;;5040185;28;20040;-80
2024/01/02 07:24:58;;;;;;;3.42;1.40;;;;;;;;;;5039649;28;20045;-80
2024/01/02 07:27:23;;;;;;;2.17;1.27;;;;;;;;;;5039707;28;20028;-79
2024/01/02 07:29:49;;;;;;;3.03;1.40;;;;;;;;;;5037765;28;20124;-79
2024/01/02 07:32:14;;;;;;;5.10;1.50;;;;;;;;;;5039255;28;20052;-79
2024/01/02 07:34:40;;;;;;;3.35;1.30;;;;;;;;;;5039286;28;20029;-79
2024/01/02 07:37:05;;;;;;;3.27;1.50;;;;;;;;;;5038247;28;20023;-79
2024/01/02 07:39:30;;;;;;;2.13;1.23;;;;;;;;;;5021107;28;20258;-78
2024/01/02 07:41:55;;;;;;;3.83;1.73;;;;;;;;;;5038695;28;20277;-77
2024/01/02 07:44:22;;;;;;;5.45;2.10;;;;;;;;;;5038421;28;20258;-80
2024/01/02 07:46:47;;;;;;;3.50;1.50;;;;;;;;;;5038556;28;20036;-80
2024/01/02 07:49:12;;;;;;;6.95;1.90;;;;;;;;;;5019888;28;20033;-80
2024/01/02 07:51:37;;;;;;;7.22;2.05;;;;;;;;;;5037155;28;20035;-80
2024/01/02 07:54:03;;;;;;;3.13;1.43;;;;;;;;;;5036272;28;20485;-80
2024/01/02 07:56:29;;;;;;;2.97;1.35;;;;;;;;;;5038480;28;20819;-80
2024/01/02 07:58:55;;;;;;;5.30;1.40;;;;;;;;;;5020945;28;20108;-79
2024/01/02 08:01:20;;;;;;;3.10;1.50;;;;;;;;;;5039345;28;20451;-79
2024/01/02 08:03:45;;;;;;;1.83;1.17;;;;;;;;;;5038680;28;20750;-80
2024/01/02 08:06:10;;;;;;;1.47;1.07;;;;;;;;;;5038480;28;20048;-80
2024/01/02 08:08:36;;;;;;;2.60;1.30;;;;;;;;;;5038787;28;20275;-80
2024/01/02 08:11:01;;;;;;;4.38;1.40;;;;;;;;;;5038591;28;20315;-80
2024/01/02 08:13:26;;;;;;;2.50;1.10;;;;;;;;;;5038724;28;20029;-79
2024/01/02 08:15:51;;;;;;;5.60;1.40;;;;;;;;;;5038924;28;20274;-81
2024/01/02 08:18:17;;;;;;;2.30;1.23;;;;;;;;;;5038265;28;20029;-80
2024/01/02 08:20:42;;;;;;;2.70;1.20;;;;;;;;;;5038312;28;20250;-80
2024/01/02 08:23:07;;;;;;;2.38;1.10;;;;;;;;;;5038400;28;20261;-80
2024/01/02 08:25:33;;;;;;;4.68;1.50;;;;;;;;;;5051652;28;20040;-78
2024/01/02 08:27:58;;;;;;;4.63;1.00;;;;;;;;;;5051645;28;20018;-79
2024/01/02 08:30:24;;;;;;;6.10;1.30;;;;;;;;;;5044732;28;20512;-79
2024/01/02 08:32:49;;;;;;;2.45;1.13;;;;;;;;;;5039225;28;20017;-79
2024/01/02 08:35:14;;;;;;;1.70;0.98;;;;;;;;;;5039374;28;20022;-80
2024/01/02 08:37:43;;;;;;;3.55;1.42;;;;;;;;;;5038718;28;20481;-81
2024/01/02 08:40:10;;;;;;;2.20;1.10;;;;;;;;;;5037902;28;20029;-80
2024/01/02 08:42:35;;;;;;;2.63;1.30;;;;;;;;;;5038778;28;20033;-80
2024/01/02 08:45:01;;;;;;;3.85;1.35;;;;;;;;;;5038619;28;20029;-80
2024/01/02 08:47:27;;;;;;;2.53;1.25;;;;;;;;;;5038712;28;20034;-79
2024/01/02 08:49:52;;;;;;;1.50;0.87;;;;;;;;;;5038301;28;20034;-79
2024/01/02 08:52:17;;;;;;;1.03;0.90;;;;;;;;;;5038032;28;20258;-80
2024/01/02 08:54:42;;;;;;;2.80;1.23;;;;;;;;;;5038235;28;20255;-80
2024/01/02 08:57:07;;;;;;;2.70;1.10;;;;;;;;;;5037961;28;20255;-79
2024/01/02 08:59:33;;;;;;;2.10;1.03;;;;;;;;;;5019827;28;20261;-79
2024/01/02 09:01:58;;;;;;;2.42;1.30;;;;;;;;;;5036430;28;20266;-79
2024/01/02 09:04:24;;;;;;;3.78;1.40;;;;;;;;;;5019897;28;20076;-79
2024/01/02 09:06:51;;;;;;;4.68;0.93;;;;;;;;;;5037688;28;20026;-80
2024/01/02 09:09:16;;;;;;;1.88;1.10;;;;;;;;;;5019874;28;20028;-80
2024/01/02 09:11:42;;;;;;;2.38;1.00;;;;;;;;;;5038251;28;20026;-80
2024/01/02 09:14:07;;;;;;;0.80;0.60;;;;;;;;;;5037866;28;20083;-80
2024/01/02 09:16:33;;;;;;;1.08;0.60;;;;;;;;;;5037626;28;20263;-79
2024/01/02 09:18:58;;;;;;;1.30;0.95;;;;;;;;;;5037777;28;20040;-81
2024/01/02 09:21:24;;;;;;;2.78;0.90;;;;;;;;;;5037650;28;20531;-80
2024/01/02 09:23:49;;;;;;;0.90;0.70;;;;;;;;;;5037773;28;20021;-80
2024/01/02 09:26:21;;;;;;;3.70;0.90;;;;;;;;;;5038039;28;20380;-79
2024/01/02 09:28:47;;;;;;;1.02;0.80;;;;;;;;;;5036838;28;20301;-80
2024/01/02 09:31:13;;;;;;;2.28;0.60;;;;;;;;;;5036944;28;20044;-79
2024/01/02 09:33:38;;;;;;;1.13;0.60;;;;;;;;;;5036385;28;20025;-79
2024/01/02 09:36:07;;;;;;;1.10;0.73;;;;;;;;;;5036300;28;20396;-79
2024/01/02 09:38:33;;;;;;;1.15;0.82;;;;;;;;;;5037608;28;20114;-80
2024/01/02 09:41:26;;;;;;;2.25;0.85;;;;;;;;;;5037253;28;20057;-80
2024/01/02 09:44:07;;;;;;;0.75;0.60;;;;;;;;;;5037086;28;20030;-80
2024/01/02 09:47:04;;;;;;;0.65;0.60;;;;;;;;;;5037602;28;20033;-79
2024/01/02 09:49:39;;;;;;;0.70;0.70;;;;;;;;;;5037118;28;20039;-80
2024/01/02 09:52:25;;;;;;;1.75;0.90;;;;;;;;;;5036797;28;20029;-79
2024/01/02 09:54:59;;;;;;;0.95;0.75;;;;;;;;;;5018339;28;20077;-79
2024/01/02 09:57:29;;;;;;;1.10;0.60;;;;;;;;;;5036593;28;20048;-80
2024/01/02 10:00:03;;;;;;;0.80;0.60;;;;;;;;;;5035523;28;20060;-80
2024/01/02 10:03:01;;;;;;;0.75;0.60;;;;;;;;;;5036128;28;20029;-80
2024/01/02 10:05:52;;;;;;;1.02;0.77;;;;;;;;;;5035160;28;20025;-80
2024/01/02 10:08:38;;;;;;;1.35;0.63;;;;;;;;;;5036266;28;20470;-80
2024/01/02 10:11:28;;;;;;;1.00;0.75;;;;;;;;;;5036377;28;20029;-80
2024/01/02 10:14:00;;;;;;;1.38;0.77;;;;;;;;;;5034804;28;20040;-80
2024/01/02 10:16:36;;;;;;;1.45;0.60;;;;;;;;;;5036139;28;20079;-80
2024/01/02 10:19:10;;;;;;;2.58;0.85;;;;;;;;;;5036460;28;20053;-80
2024/01/02 10:21:44;;;;;;;;;;;;;;;;;;5036723;28;20104;-79
2024/01/02 10:24:23;;;;;;;0.98;0.68;;;;;;;;;;5035910;28;19909;-79
2024/01/02 10:27:00;;;;;;;0.50;0.45;;;;;;;;;;5035977;28;20037;-79
2024/01/02 10:29:37;;;;;;;1.00;0.70;;;;;;;;;;5036231;28;20102;-79
2024/01/02 10:32:11;;;;;;;2.22;0.25;;;;;;;;;;5035969;28;20029;-79
2024/01/02 10:34:45;;;;;;;0.63;0.60;;;;;;;;;;5036118;28;20029;-80
2024/01/02 10:37:12;;;;;;;1.00;0.50;;;;;;;;;;5035529;28;20026;-81
2024/01/02 10:39:47;;;;;;;0.82;0.60;;;;;;;;;;5034974;28;20500;-79
2024/01/02 10:42:24;;;;;;;2.83;0.60;;;;;;;;;;5038482;28;20087;-79
2024/01/02 10:45:03;;;;;;;1.27;0.70;;;;;;;;;;5039478;28;20045;-80
2024/01/02 10:47:28;;;;;;;0.90;0.60;;;;;;;;;;5039748;28;20038;-79
2024/01/02 10:50:03;;;;;;;1.73;0.60;;;;;;;;;;5039436;28;20030;-79
2024/01/02 10:52:38;;;;;;;1.02;0.63;;;;;;;;;;5021212;28;20033;-79
2024/01/02 10:55:15;;;;;;;1.23;0.80;;;;;;;;;;5037017;28;20142;-79
2024/01/02 10:57:52;;;;;;;1.23;0.70;;;;;;;;;;5037293;28;20021;-79
2024/01/02 11:00:22;;;;;;;1.10;0.52;;;;;;;;;;5037817;28;20026;-79
2024/01/02 11:02:53;;;;;;;0.82;0.70;;;;;;;;;;5021055;28;20025;-79
2024/01/02 11:05:34;;;;;;;1.50;0.70;;;;;;;;;;5038374;28;20372;-79
2024/01/02 11:08:17;;;;;;;1.40;0.63;;;;;;;;;;5037109;28;20025;-79
2024/01/02 11:10:52;;;;;;;1.13;0.77;;;;;;;;;;5037534;28;20087;-79
2024/01/02 11:13:19;;;;;;;2.30;0.77;;;;;;;;;;5036941;28;20267;-80
2024/01/02 11:15:47;;;;;;;2.42;0.50;;;;;;;;;;5038292;28;20403;-79
2024/01/02 11:18:15;;;;;;;0.93;0.50;;;;;;;;;;5038654;28;20510;-79
2024/01/02 11:20:59;;;;;;;0.45;0.40;;;;;;;;;;5038782;28;20029;-79
2024/01/02 11:23:29;;;;;;;0.63;0.40;;;;;;;;;;5021054;28;20025;-79
2024/01/02 11:26:02;;;;;;;2.25;0.50;;;;;;;;;;5021050;28;20440;-79
2024/01/02 11:28:28;;;;;;;0.85;0.52;;;;;;;;;;5038968;28;20032;-79
2024/01/02 11:30:55;;;;;;;1.00;0.45;;;;;;;;;;5038524;28;20412;-78
2024/01/02 11:33:40;;;;;;;0.52;0.52;;;;;;;;;;5021158;28;20021;-79
2024/01/02 11:36:27;;;;;;;0.85;0.52;;;;;;;;;;5038913;28;20078;-79
2024/01/02 11:39:08;;;;;;;0.80;0.50;;;;;;;;;;5039564;28;20124;-79
2024/01/02 11:41:50;;;;;;;0.55;0.40;;;;;;;;;;5039027;28;20025;-78
2024/01/02 11:44:28;;;;;;;1.00;0.60;;;;;;;;;;5038967;28;20025;-77
2024/01/02 11:47:02;;;;;;;1.13;0.60;;;;;;;;;;5037717;28;20153;-78
2024/01/02 11:49:28;;;;;;;1.25;0.50;;;;;;;;;;5039392;28;20028;-78
2024/01/02 11:52:11;;;;;;;1.80;0.73;;;;;;;;;;5037738;28;20411;-80
2024/01/02 11:55:10;;;;;;;1.05;0.70;;;;;;;;;;5038911;28;20040;-79
2024/01/02 11:57:51;;;;;;;1.00;0.63;;;;;;;;;;5006347;28;20422;-79
2024/01/02 12:00:26;;;;;;;0.85;0.47;;;;;;;;;;5039166;28;20396;-80
2024/01/02 12:03:13;;;;;;;0.90;0.65;;;;;;;;;;5037699;28;20029;-80
2024/01/02 12:05:42;;;;;;;0.47;0.40;;;;;;;;;;5021471;28;20492;-79
2024/01/02 12:08:12;;;;;;;0.57;0.50;;;;;;;;;;5039016;28;20159;-79
2024/01/02 12:10:47;;;;;;;1.27;0.52;;;;;;;;;;5039072;28;20428;-79
2024/01/02 12:13:23;;;;;;;0.98;0.40;;;;;;;;;;5038447;28;20025;-80
2024/01/02 12:15:54;;;;;;;0.38;0.35;;;;;;;;;;5038762;28;20032;-80
2024/01/02 12:18:26;;;;;;;2.03;0.40;;;;;;;;;;5037441;28;20040;-80
2024/01/02 12:21:01;;;;;;;0.35;0.35;;;;;;;;;;5039573;28;20546;-80
2024/01/02 12:23:29;;;;;;;0.30;0.30;;;;;;;;;;5043587;28;20499;-80
2024/01/02 12:25:57;;;;;;;0.50;0.40;;;;;;;;;;5041404;28;20044;-80
2024/01/02 12:28:24;;;;;;;0.22;0.13;;;;;;;;;;5059977;28;20064;-80
2024/01/02 12:31:16;;;;;;;0.52;0.30;;;;;;;;;;5059488;28;20040;-80
2024/01/02 12:33:46;;;;;;;0.32;0.32;;;;;;;;;;5011038;28;20086;-80
2024/01/02 12:36:26;;;;;;;0.95;0.50;;;;;;;;;;5040610;28;20400;-79
2024/01/02 12:38:53;;;;;;;0.63;0.55;;;;;;;;;;5058853;28;20055;-80
2024/01/02 12:41:26;;;;;;;0.93;0.43;;;;;;;;;;5041562;28;20420;-79
2024/01/02 12:43:56;;;;;;;0.35;0.32;;;;;;;;;;5058676;28;20020;-80
2024/01/02 12:46:29;;;;;;;0.32;0.32;;;;;;;;;;5058498;28;20029;-80
2024/01/02 12:49:07;;;;;;;0.47;0.30;;;;;;;;;;5058617;28;20031;-81
2024/01/02 12:51:34;;;;;;;0.88;0.57;;;;;;;;;;5058189;28;20139;-80
2024/01/02 12:54:01;;;;;;;0.30;0.30;;;;;;;;;;5058285;28;20078;-80
2024/01/02 12:56:31;;;;;;;0.60;0.60;;;;;;;;;;5057035;28;20047;-78
2024/01/02 12:59:03;;;;;;;0.98;0.60;;;;;;;;;;5059150;28;20024;-79
2024/01/02 13:01:30;;;;;;;0.60;0.60;;;;;;;;;;5058294;28;20024;-80
2024/01/02 13:03:55;;;;;;;0.70;0.50;;;;;;;;;;5039438;28;20116;-80
2024/01/02 13:06:20;;;;;;;2.50;0.57;;;;;;;;;;5058168;28;20078;-80
2024/01/02 13:08:49;;;;;;;0.52;0.50;;;;;;;;;;5058620;28;20032;-80
2024/01/02 13:11:15;;;;;;;0.60;0.50;;;;;;;;;;5058020;28;20028;-79
2024/01/02 13:13:41;;;;;;;0.73;0.55;;;;;;;;;;5041728;28;20025;-79
2024/01/02 13:16:06;;;;;;;1.13;0.60;;;;;;;;;;5058892;28;20027;-79
2024/01/02 13:18:33;;;;;;;0.90;0.70;;;;;;;;;;5040715;28;20466;-79
2024/01/02 13:20:58;;;;;;;1.50;0.60;;;;;;;;;;5057989;28;20472;-80
2024/01/02 13:23:23;;;;;;;0.52;0.47;;;;;;;;;;5060330;28;20029;-80
2024/01/02 13:25:50;;;;;;;0.80;0.70;;;;;;;;;;5058319;28;20070;-80
2024/01/02 13:28:18;;;;;;;0.77;0.60;;;;;;;;;;5057727;28;20029;-79
2024/01/02 13:30:45;;;;;;;1.98;0.60;;;;;;;;;;5040041;28;20515;-80
2024/01/02 13:33:11;;;;;;;0.68;0.43;;;;;;;;;;5057307;28;20103;-80
2024/01/02 13:35:36;;;;;;;0.52;0.50;;;;;;;;;;5058464;28;20049;-81
2024/01/02 13:38:04;;;;;;;0.98;0.60;;;;;;;;;;5057995;28;20488;-80
2024/01/02 13:40:30;;;;;;;0.70;0.60;;;;;;;;;;5039629;28;20044;-80
2024/01/02 13:43:00;;;;;;;1.08;0.80;;;;;;;;;;5058216;28;20036;-80
2024/01/02 13:45:37;;;;;;;2.30;0.90;;;;;;;;;;5039988;28;20032;-80
2024/01/02 13:48:12;;;;;;;2.05;0.90;;;;;;;;;;5039977;28;20025;-80
2024/01/02 13:50:37;;;;;;;1.10;0.70;;;;;;;;;;5057442;28;20032;-80
2024/01/02 13:53:04;;;;;;;1.45;0.98;;;;;;;;;;5057387;28;20391;-80
2024/01/02 13:55:31;;;;;;;1.67;1.10;;;;;;;;;;5057493;28;20036;-80
2024/01/02 13:58:12;;;;;;;2.22;1.00;;;;;;;;;;5056911;28;20021;-79
2024/01/02 14:00:38;;;;;;;1.02;0.70;;;;;;;;;;5057136;28;20036;-79
2024/01/02 14:03:07;;;;;;;1.40;0.80;;;;;;;;;;5057581;28;20017;-80
2024/01/02 14:05:33;;;;;;;0.82;0.65;;;;;;;;;;5056846;28;20029;-79
2024/01/02 14:07:59;;;;;;;1.38;0.75;;;;;;;;;;5056806;28;20484;-79
2024/01/02 14:10:38;;;;;;;1.00;0.80;;;;;;;;;;5056538;28;20120;-79
2024/01/02 14:13:34;;;;;;;0.70;0.60;;;;;;;;;;5056442;28;20021;-79
2024/01/02 14:16:06;;;;;;;1.15;0.70;;;;;;;;;;5038775;28;20028;-80
2024/01/02 14:18:33;;;;;;;1.13;0.80;;;;;;;;;;5056115;28;20028;-79
2024/01/02 14:21:15;;;;;;;2.25;1.10;;;;;;;;;;5037749;28;20017;-79
2024/01/02 14:23:47;;;;;;;2.78;1.30;;;;;;;;;;5037435;28;20056;-79
2024/01/02 14:26:32;;;;;;;2.20;1.40;;;;;;;;;;5037868;28;20056;-79
2024/01/02 14:29:04;;;;;;;2.55;1.40;;;;;;;;;;5037294;28;20025;-79
2024/01/02 14:31:54;;;;;;;2.30;0.70;;;;;;;;;;5038069;28;20025;-79
2024/01/02 14:34:26;;;;;;;1.27;0.70;;;;;;;;;;5055875;28;20506;-79
2024/01/02 14:36:57;;;;;;;1.30;0.90;;;;;;;;;;5055615;28;20060;-79
2024/01/02 14:39:37;;;;;;;3.20;0.90;;;;;;;;;;5037882;28;20124;-79
2024/01/02 14:42:34;;;;;;;1.13;0.90;;;;;;;;;;5056110;28;20021;-79
2024/01/02 14:45:09;;;;;;;3.70;0.95;;;;;;;;;;5037420;28;20092;-79
2024/01/02 14:47:54;;;;;;;1.15;0.90;;;;;;;;;;5037434;28;20078;-79
2024/01/02 14:50:42;;;;;;;2.25;0.90;;;;;;;;;;5038339;28;20476;-80